sensor_id;sensor_type;location;lat;lon;timestamp;pressure;altitude;pressure_sealevel;temperature;humidity
27712;BME280;2377;51.734;8.950;2023-02-04T00:00:13;98981.31;;;5.84;97.45
27712;BME280;2377;51.734;8.950;2023-02-04T00:02:41;98985.09;;;5.80;97.73
27712;BME280;2377;51.734;8.950;2023-02-04T00:05:09;98994.91;;;5.75;98.38
27712;BME280;2377;51.734;8.950;2023-02-04T00:07:38;98994.59;;;5.78;98.39
27712;BME280;2377;51.734;8.950;2023-02-04T00:10:06;98984.63;;;5.77;98.85
27712;BME280;2377;51.734;8.950;2023-02-04T00:12:34;99004.09;;;5.76;98.90
27712;BME280;2377;51.734;8.950;2023-02-04T00:15:02;99003.31;;;5.76;98.82
27712;BME280;2377;51.734;8.950;2023-02-04T00:17:30;99008.38;;;5.76;99.55
27712;BME280;2377;51.734;8.950;2023-02-04T00:19:57;99015.72;;;5.79;99.33
27712;BME280;2377;51.734;8.950;2023-02-04T00:22:24;99010.00;;;5.77;99.27
27712;BME280;2377;51.734;8.950;2023-02-04T00:24:53;99021.72;;;5.78;99.36
27712;BME280;2377;51.734;8.950;2023-02-04T00:27:20;99023.31;;;5.79;99.48
27712;BME280;2377;51.734;8.950;2023-02-04T00:29:49;99021.84;;;5.76;99.88
27712;BME280;2377;51.734;8.950;2023-02-04T00:32:16;99020.78;;;5.79;100.00
27712;BME280;2377;51.734;8.950;2023-02-04T00:34:43;99029.31;;;5.78;99.58
27712;BME280;2377;51.734;8.950;2023-02-04T00:37:10;99030.56;;;5.73;99.96
27712;BME280;2377;51.734;8.950;2023-02-04T00:39:37;99029.00;;;5.72;100.00
27712;BME280;2377;51.734;8.950;2023-02-04T00:42:04;99024.06;;;5.71;100.00
27712;BME280;2377;51.734;8.950;2023-02-04T00:44:32;99028.34;;;5.70;100.00
27712;BME280;2377;51.734;8.950;2023-02-04T00:47:03;99030.72;;;5.72;100.00
27712;BME280;2377;51.734;8.950;2023-02-04T00:49:30;99028.34;;;5.70;100.00
27712;BME280;2377;51.734;8.950;2023-02-04T00:51:57;99026.31;;;5.74;99.80
27712;BME280;2377;51.734;8.950;2023-02-04T00:54:25;99044.84;;;5.75;99.74
27712;BME280;2377;51.734;8.950;2023-02-04T00:56:52;99049.59;;;5.69;99.94
27712;BME280;2377;51.734;8.950;2023-02-04T00:59:19;99049.72;;;5.68;100.00
27712;BME280;2377;51.734;8.950;2023-02-04T01:01:46;99051.97;;;5.71;100.00
27712;BME280;2377;51.734;8.950;2023-02-04T01:04:15;99063.72;;;5.72;100.00
27712;BME280;2377;51.734;8.950;2023-02-04T01:06:42;99067.69;;;5.75;100.00
27712;BME280;2377;51.734;8.950;2023-02-04T01:09:09;99065.28;;;5.73;100.00
27712;BME280;2377;51.734;8.950;2023-02-04T01:11:36;99073.84;;;5.72;100.00
27712;BME280;2377;51.734;8.950;2023-02-04T01:14:03;99080.03;;;5.69;100.00
27712;BME280;2377;51.734;8.950;2023-02-04T01:16:30;99083.78;;;5.65;100.00
27712;BME280;2377;51.734;8.950;2023-02-04T01:18:57;99083.00;;;5.65;100.00
27712;BME280;2377;51.734;8.950;2023-02-04T01:21:26;99082.72;;;5.68;100.00
27712;BME280;2377;51.734;8.950;2023-02-04T01:23:53;99082.19;;;5.64;100.00
27712;BME280;2377;51.734;8.950;2023-02-04T01:26:21;99087.75;;;5.60;100.00
27712;BME280;2377;51.734;8.950;2023-02-04T01:28:48;99086.56;;;5.54;100.00
27712;BME280;2377;51.734;8.950;2023-02-04T01:31:15;99092.25;;;5.48;100.00
27712;BME280;2377;51.734;8.950;2023-02-04T01:33:42;99110.63;;;5.50;100.00
27712;BME280;2377;51.734;8.950;2023-02-04T01:36:10;99105.28;;;5.53;100.00
27712;BME280;2377;51.734;8.950;2023-02-04T01:38:39;99110.69;;;5.58;100.00
27712;BME280;2377;51.734;8.950;2023-02-04T01:41:06;99105.31;;;5.61;100.00
27712;BME280;2377;51.734;8.950;2023-02-04T01:43:33;99113.22;;;5.58;100.00
27712;BME280;2377;51.734;8.950;2023-02-04T01:46:00;99114.97;;;5.58;100.00
27712;BME280;2377;51.734;8.950;2023-02-04T01:48:28;99111.00;;;5.55;100.00
27712;BME280;2377;51.734;8.950;2023-02-04T01:51:02;99107.50;;;5.56;100.00
27712;BME280;2377;51.734;8.950;2023-02-04T01:53:31;99122.22;;;5.53;100.00
27712;BME280;2377;51.734;8.950;2023-02-04T01:56:01;99127.16;;;5.54;100.00
27712;BME280;2377;51.734;8.950;2023-02-04T01:58:33;99128.53;;;5.48;100.00
27712;BME280;2377;51.734;8.950;2023-02-04T02:01:00;99129.31;;;5.49;100.00
27712;BME280;2377;51.734;8.950;2023-02-04T02:03:27;99131.88;;;5.49;100.00
27712;BME280;2377;51.734;8.950;2023-02-04T02:05:55;99135.34;;;5.48;100.00
27712;BME280;2377;51.734;8.950;2023-02-04T02:08:22;99130.56;;;5.45;100.00
27712;BME280;2377;51.734;8.950;2023-02-04T02:10:49;99139.47;;;5.49;100.00
27712;BME280;2377;51.734;8.950;2023-02-04T02:13:19;99143.59;;;5.50;100.00
27712;BME280;2377;51.734;8.950;2023-02-04T02:15:46;99141.88;;;5.50;100.00
27712;BME280;2377;51.734;8.950;2023-02-04T02:18:15;99151.06;;;5.51;100.00
27712;BME280;2377;51.734;8.950;2023-02-04T02:20:43;99142.97;;;5.48;100.00
27712;BME280;2377;51.734;8.950;2023-02-04T02:23:20;99154.38;;;5.52;100.00
27712;BME280;2377;51.734;8.950;2023-02-04T02:25:52;99150.63;;;5.56;100.00
27712;BME280;2377;51.734;8.950;2023-02-04T02:28:21;99158.66;;;5.51;100.00
27712;BME280;2377;51.734;8.950;2023-02-04T02:30:50;99159.88;;;5.47;100.00
27712;BME280;2377;51.734;8.950;2023-02-04T02:33:19;99165.69;;;5.40;100.00
27712;BME280;2377;51.734;8.950;2023-02-04T02:35:47;99152.88;;;5.41;100.00
27712;BME280;2377;51.734;8.950;2023-02-04T02:38:16;99151.78;;;5.44;100.00
27712;BME280;2377;51.734;8.950;2023-02-04T02:40:44;99149.91;;;5.46;100.00
27712;BME280;2377;51.734;8.950;2023-02-04T02:43:16;99166.72;;;5.47;100.00
27712;BME280;2377;51.734;8.950;2023-02-04T02:45:45;99172.56;;;5.47;100.00
27712;BME280;2377;51.734;8.950;2023-02-04T02:48:12;99181.91;;;5.47;100.00
27712;BME280;2377;51.734;8.950;2023-02-04T02:50:40;99179.81;;;5.42;100.00
27712;BME280;2377;51.734;8.950;2023-02-04T02:53:11;99176.19;;;5.45;100.00
27712;BME280;2377;51.734;8.950;2023-02-04T02:55:39;99176.06;;;5.46;100.00
27712;BME280;2377;51.734;8.950;2023-02-04T02:58:22;99188.59;;;5.48;100.00
27712;BME280;2377;51.734;8.950;2023-02-04T03:00:50;99195.56;;;5.46;100.00
27712;BME280;2377;51.734;8.950;2023-02-04T03:03:24;99198.09;;;5.46;100.00
27712;BME280;2377;51.734;8.950;2023-02-04T03:05:56;99200.41;;;5.39;100.00
27712;BME280;2377;51.734;8.950;2023-02-04T03:08:24;99208.78;;;5.40;100.00
27712;BME280;2377;51.734;8.950;2023-02-04T03:10:52;99214.66;;;5.40;100.00
27712;BME280;2377;51.734;8.950;2023-02-04T03:13:21;99211.03;;;5.43;100.00
27712;BME280;2377;51.734;8.950;2023-02-04T03:15:48;99218.50;;;5.44;100.00
27712;BME280;2377;51.734;8.950;2023-02-04T03:18:18;99216.41;;;5.40;100.00
27712;BME280;2377;51.734;8.950;2023-02-04T03:20:48;99212.19;;;5.30;100.00
27712;BME280;2377;51.734;8.950;2023-02-04T03:23:17;99221.84;;;5.27;100.00
27712;BME280;2377;51.734;8.950;2023-02-04T03:25:44;99217.03;;;5.24;100.00
27712;BME280;2377;51.734;8.950;2023-02-04T03:28:12;99218.13;;;5.21;100.00
27712;BME280;2377;51.734;8.950;2023-02-04T03:30:40;99217.44;;;5.19;100.00
27712;BME280;2377;51.734;8.950;2023-02-04T03:33:07;99229.47;;;5.17;100.00
27712;BME280;2377;51.734;8.950;2023-02-04T03:35:34;99222.38;;;5.21;100.00
27712;BME280;2377;51.734;8.950;2023-02-04T03:38:02;99226.94;;;5.17;100.00
27712;BME280;2377;51.734;8.950;2023-02-04T03:40:29;99232.00;;;5.17;100.00
27712;BME280;2377;51.734;8.950;2023-02-04T03:42:56;99240.00;;;5.22;100.00
27712;BME280;2377;51.734;8.950;2023-02-04T03:45:23;99246.16;;;5.20;100.00
27712;BME280;2377;51.734;8.950;2023-02-04T03:47:51;99250.13;;;5.22;100.00
27712;BME280;2377;51.734;8.950;2023-02-04T03:50:18;99249.97;;;5.24;100.00
27712;BME280;2377;51.734;8.950;2023-02-04T03:52:45;99269.34;;;5.25;100.00
27712;BME280;2377;51.734;8.950;2023-02-04T03:55:13;99270.13;;;5.25;100.00
27712;BME280;2377;51.734;8.950;2023-02-04T03:57:40;99263.84;;;5.29;100.00
27712;BME280;2377;51.734;8.950;2023-02-04T04:00:09;99268.91;;;5.29;100.00
27712;BME280;2377;51.734;8.950;2023-02-04T04:02:36;99271.44;;;5.29;100.00
27712;BME280;2377;51.734;8.950;2023-02-04T04:05:06;99282.66;;;5.27;100.00
27712;BME280;2377;51.734;8.950;2023-02-04T04:07:33;99284.25;;;5.28;100.00
27712;BME280;2377;51.734;8.950;2023-02-04T04:10:00;99281.06;;;5.26;100.00
27712;BME280;2377;51.734;8.950;2023-02-04T04:12:27;99282.81;;;5.25;100.00
27712;BME280;2377;51.734;8.950;2023-02-04T04:14:55;99282.50;;;5.28;100.00
27712;BME280;2377;51.734;8.950;2023-02-04T04:17:22;99299.22;;;5.21;100.00
27712;BME280;2377;51.734;8.950;2023-02-04T04:19:49;99307.63;;;5.22;100.00
27712;BME280;2377;51.734;8.950;2023-02-04T04:22:17;99314.44;;;5.21;100.00
27712;BME280;2377;51.734;8.950;2023-02-04T04:24:44;99318.84;;;5.19;100.00
27712;BME280;2377;51.734;8.950;2023-02-04T04:27:11;99324.19;;;5.16;100.00
27712;BME280;2377;51.734;8.950;2023-02-04T04:29:51;99321.66;;;5.16;100.00
27712;BME280;2377;51.734;8.950;2023-02-04T04:32:18;99341.28;;;5.14;100.00
27712;BME280;2377;51.734;8.950;2023-02-04T04:34:45;99349.16;;;5.11;100.00
27712;BME280;2377;51.734;8.950;2023-02-04T04:37:12;99353.94;;;5.14;100.00
27712;BME280;2377;51.734;8.950;2023-02-04T04:39:41;99359.81;;;5.15;100.00
27712;BME280;2377;51.734;8.950;2023-02-04T04:42:08;99359.69;;;5.16;99.34
27712;BME280;2377;51.734;8.950;2023-02-04T04:44:35;99347.28;;;5.13;99.39
27712;BME280;2377;51.734;8.950;2023-02-04T04:47:02;99347.13;;;5.15;99.11
27712;BME280;2377;51.734;8.950;2023-02-04T04:49:29;99351.28;;;5.16;98.83
27712;BME280;2377;51.734;8.950;2023-02-04T04:51:56;99355.16;;;5.10;98.10
27712;BME280;2377;51.734;8.950;2023-02-04T04:54:23;99361.16;;;5.09;98.22
27712;BME280;2377;51.734;8.950;2023-02-04T04:56:51;99363.31;;;5.04;97.51
27712;BME280;2377;51.734;8.950;2023-02-04T04:59:18;99367.06;;;5.00;97.89
27712;BME280;2377;51.734;8.950;2023-02-04T05:01:46;99372.91;;;5.00;98.03
27712;BME280;2377;51.734;8.950;2023-02-04T05:04:13;99374.38;;;5.03;97.77
27712;BME280;2377;51.734;8.950;2023-02-04T05:06:40;99387.34;;;5.00;97.71
27712;BME280;2377;51.734;8.950;2023-02-04T05:09:07;99389.88;;;5.00;98.07
27712;BME280;2377;51.734;8.950;2023-02-04T05:11:34;99388.66;;;5.04;98.53
27712;BME280;2377;51.734;8.950;2023-02-04T05:14:02;99382.41;;;5.08;98.66
27712;BME280;2377;51.734;8.950;2023-02-04T05:16:30;99392.38;;;5.09;98.34
27712;BME280;2377;51.734;8.950;2023-02-04T05:18:57;99392.38;;;5.09;98.52
27712;BME280;2377;51.734;8.950;2023-02-04T05:21:24;99391.59;;;5.09;98.48
27712;BME280;2377;51.734;8.950;2023-02-04T05:23:51;99400.63;;;5.12;98.83
27712;BME280;2377;51.734;8.950;2023-02-04T05:26:18;99408.91;;;5.14;98.90
27712;BME280;2377;51.734;8.950;2023-02-04T05:28:45;99404.13;;;5.11;97.91
27712;BME280;2377;51.734;8.950;2023-02-04T05:31:14;99409.31;;;5.09;98.20
27712;BME280;2377;51.734;8.950;2023-02-04T05:33:41;99401.72;;;5.09;98.01
27712;BME280;2377;51.734;8.950;2023-02-04T05:36:08;99396.66;;;5.09;98.36
27712;BME280;2377;51.734;8.950;2023-02-04T05:38:35;99395.84;;;5.08;98.55
27712;BME280;2377;51.734;8.950;2023-02-04T05:41:02;99405.84;;;5.10;99.01
27712;BME280;2377;51.734;8.950;2023-02-04T05:43:29;99405.19;;;5.08;98.25
27712;BME280;2377;51.734;8.950;2023-02-04T05:45:56;99409.59;;;5.06;98.08
27712;BME280;2377;51.734;8.950;2023-02-04T05:48:24;99411.47;;;5.04;98.16
27712;BME280;2377;51.734;8.950;2023-02-04T05:50:52;99418.00;;;5.06;97.88
27712;BME280;2377;51.734;8.950;2023-02-04T05:53:19;99429.88;;;5.06;98.04
27712;BME280;2377;51.734;8.950;2023-02-04T05:55:46;99423.97;;;5.05;97.23
27712;BME280;2377;51.734;8.950;2023-02-04T05:58:13;99429.47;;;5.01;96.25
27712;BME280;2377;51.734;8.950;2023-02-04T06:00:40;99434.28;;;4.94;95.77
27712;BME280;2377;51.734;8.950;2023-02-04T06:03:07;99439.50;;;4.93;95.90
27712;BME280;2377;51.734;8.950;2023-02-04T06:05:35;99443.88;;;4.91;96.44
27712;BME280;2377;51.734;8.950;2023-02-04T06:08:03;99446.41;;;4.91;96.02
27712;BME280;2377;51.734;8.950;2023-02-04T06:10:30;99444.94;;;4.88;95.60
27712;BME280;2377;51.734;8.950;2023-02-04T06:12:58;99440.56;;;4.80;95.20
27712;BME280;2377;51.734;8.950;2023-02-04T06:15:25;99454.56;;;4.75;95.64
27712;BME280;2377;51.734;8.950;2023-02-04T06:17:52;99456.28;;;4.74;96.02
27712;BME280;2377;51.734;8.950;2023-02-04T06:20:19;99463.88;;;4.74;95.68
27712;BME280;2377;51.734;8.950;2023-02-04T06:22:48;99466.03;;;4.69;95.42
27712;BME280;2377;51.734;8.950;2023-02-04T06:25:16;99474.56;;;4.68;95.86
27712;BME280;2377;51.734;8.950;2023-02-04T06:27:43;99474.56;;;4.68;95.84
27712;BME280;2377;51.734;8.950;2023-02-04T06:30:12;99475.59;;;4.65;95.90
27712;BME280;2377;51.734;8.950;2023-02-04T06:32:39;99480.03;;;4.63;95.40
27712;BME280;2377;51.734;8.950;2023-02-04T06:35:07;99478.81;;;4.58;95.06
27712;BME280;2377;51.734;8.950;2023-02-04T06:37:35;99480.66;;;4.56;95.12
27712;BME280;2377;51.734;8.950;2023-02-04T06:40:04;99484.41;;;4.52;94.95
27712;BME280;2377;51.734;8.950;2023-02-04T06:42:31;99486.50;;;4.47;94.43
27712;BME280;2377;51.734;8.950;2023-02-04T06:44:58;99491.06;;;4.43;94.81
27712;BME280;2377;51.734;8.950;2023-02-04T06:47:25;99493.97;;;4.38;94.74
27712;BME280;2377;51.734;8.950;2023-02-04T06:49:52;99493.31;;;4.36;94.92
27712;BME280;2377;51.734;8.950;2023-02-04T06:52:19;99501.69;;;4.37;94.85
27712;BME280;2377;51.734;8.950;2023-02-04T06:54:46;99502.47;;;4.37;94.90
27712;BME280;2377;51.734;8.950;2023-02-04T06:57:15;99506.91;;;4.35;94.67
27712;BME280;2377;51.734;8.950;2023-02-04T06:59:42;99505.66;;;4.30;93.97
27712;BME280;2377;51.734;8.950;2023-02-04T07:02:10;99507.00;;;4.24;94.06
27712;BME280;2377;51.734;8.950;2023-02-04T07:04:37;99515.50;;;4.23;94.44
27712;BME280;2377;51.734;8.950;2023-02-04T07:07:04;99512.44;;;4.19;94.78
27712;BME280;2377;51.734;8.950;2023-02-04T07:09:31;99526.16;;;4.17;94.52
27712;BME280;2377;51.734;8.950;2023-02-04T07:11:58;99531.22;;;4.17;94.93
27712;BME280;2377;51.734;8.950;2023-02-04T07:14:27;99538.94;;;4.15;94.71
27712;BME280;2377;51.734;8.950;2023-02-04T07:16:54;99542.53;;;4.13;94.30
27712;BME280;2377;51.734;8.950;2023-02-04T07:19:23;99552.22;;;4.08;93.46
27712;BME280;2377;51.734;8.950;2023-02-04T07:21:50;99550.88;;;4.03;93.65
27712;BME280;2377;51.734;8.950;2023-02-04T07:24:21;99541.69;;;4.02;94.15
27712;BME280;2377;51.734;8.950;2023-02-04T07:26:49;99547.44;;;4.05;94.55
27712;BME280;2377;51.734;8.950;2023-02-04T07:29:16;99549.97;;;4.05;94.93
27712;BME280;2377;51.734;8.950;2023-02-04T07:31:45;99551.53;;;4.06;94.55
27712;BME280;2377;51.734;8.950;2023-02-04T07:34:12;99553.97;;;4.07;94.83
27712;BME280;2377;51.734;8.950;2023-02-04T07:36:39;99558.34;;;4.05;94.74
27712;BME280;2377;51.734;8.950;2023-02-04T07:39:07;99562.59;;;4.05;94.59
27712;BME280;2377;51.734;8.950;2023-02-04T07:41:35;99561.78;;;4.04;94.73
27712;BME280;2377;51.734;8.950;2023-02-04T07:44:02;99563.41;;;4.05;94.78
27712;BME280;2377;51.734;8.950;2023-02-04T07:46:30;99566.63;;;4.07;95.10
27712;BME280;2377;51.734;8.950;2023-02-04T07:48:58;99569.69;;;4.11;95.73
27712;BME280;2377;51.734;8.950;2023-02-04T07:51:25;99566.88;;;4.14;95.30
27712;BME280;2377;51.734;8.950;2023-02-04T07:53:52;99565.97;;;4.15;95.37
27712;BME280;2377;51.734;8.950;2023-02-04T07:56:19;99569.28;;;4.15;95.04
27712;BME280;2377;51.734;8.950;2023-02-04T07:58:46;99577.69;;;4.16;95.48
27712;BME280;2377;51.734;8.950;2023-02-04T08:01:13;99590.34;;;4.16;94.82
27712;BME280;2377;51.734;8.950;2023-02-04T08:03:41;99585.28;;;4.16;95.11
27712;BME280;2377;51.734;8.950;2023-02-04T08:06:10;99585.16;;;4.17;95.19
27712;BME280;2377;51.734;8.950;2023-02-04T08:08:37;99590.09;;;4.19;95.27
27712;BME280;2377;51.734;8.950;2023-02-04T08:11:04;99588.25;;;4.21;95.54
27712;BME280;2377;51.734;8.950;2023-02-04T08:13:32;99591.44;;;4.23;95.18
27712;BME280;2377;51.734;8.950;2023-02-04T08:15:59;99588.09;;;4.22;95.08
27712;BME280;2377;51.734;8.950;2023-02-04T08:18:26;99594.63;;;4.25;95.41
27712;BME280;2377;51.734;8.950;2023-02-04T08:20:53;99599.69;;;4.25;94.97
27712;BME280;2377;51.734;8.950;2023-02-04T08:23:22;99608.78;;;4.28;94.72
27712;BME280;2377;51.734;8.950;2023-02-04T08:25:49;99603.59;;;4.29;95.54
27712;BME280;2377;51.734;8.950;2023-02-04T08:28:16;99605.84;;;4.32;94.71
27712;BME280;2377;51.734;8.950;2023-02-04T08:30:43;99608.00;;;4.37;95.72
27712;BME280;2377;51.734;8.950;2023-02-04T08:33:10;99610.84;;;4.43;95.70
27712;BME280;2377;51.734;8.950;2023-02-04T08:35:37;99612.19;;;4.48;94.84
27712;BME280;2377;51.734;8.950;2023-02-04T08:38:04;99611.16;;;4.60;94.67
27712;BME280;2377;51.734;8.950;2023-02-04T08:40:33;99613.88;;;4.78;95.31
27712;BME280;2377;51.734;8.950;2023-02-04T08:43:00;99626.03;;;4.94;95.09
27712;BME280;2377;51.734;8.950;2023-02-04T08:45:27;99622.59;;;5.04;94.76
27712;BME280;2377;51.734;8.950;2023-02-04T08:47:54;99630.88;;;5.06;94.20
27712;BME280;2377;51.734;8.950;2023-02-04T08:50:21;99626.72;;;5.05;93.77
27712;BME280;2377;51.734;8.950;2023-02-04T08:52:48;99632.84;;;5.03;92.92
27712;BME280;2377;51.734;8.950;2023-02-04T08:55:15;99635.66;;;5.00;92.67
27712;BME280;2377;51.734;8.950;2023-02-04T08:57:44;99640.59;;;5.01;93.39
27712;BME280;2377;51.734;8.950;2023-02-04T09:00:13;99645.28;;;5.06;93.71
27712;BME280;2377;51.734;8.950;2023-02-04T09:02:40;99642.59;;;5.07;93.79
27712;BME280;2377;51.734;8.950;2023-02-04T09:05:07;99638.47;;;5.06;92.71
27712;BME280;2377;51.734;8.950;2023-02-04T09:07:34;99643.66;;;5.05;92.71
27712;BME280;2377;51.734;8.950;2023-02-04T09:10:02;99651.41;;;5.03;92.73
27712;BME280;2377;51.734;8.950;2023-02-04T09:12:30;99653.81;;;5.05;92.43
27712;BME280;2377;51.734;8.950;2023-02-04T09:14:59;99662.09;;;5.07;92.50
27712;BME280;2377;51.734;8.950;2023-02-04T09:17:26;99666.09;;;5.09;92.45
27712;BME280;2377;51.734;8.950;2023-02-04T09:19:53;99669.56;;;5.08;91.78
27712;BME280;2377;51.734;8.950;2023-02-04T09:22:20;99671.31;;;5.08;91.69
27712;BME280;2377;51.734;8.950;2023-02-04T09:24:47;99670.88;;;5.03;91.28
27712;BME280;2377;51.734;8.950;2023-02-04T09:27:14;99672.72;;;5.01;91.06
27712;BME280;2377;51.734;8.950;2023-02-04T09:29:41;99679.00;;;4.97;90.24
27712;BME280;2377;51.734;8.950;2023-02-04T09:32:10;99695.38;;;4.93;90.63
27712;BME280;2377;51.734;8.950;2023-02-04T09:34:37;99686.59;;;4.97;91.11
27712;BME280;2377;51.734;8.950;2023-02-04T09:37:04;99690.47;;;5.01;91.35
27712;BME280;2377;51.734;8.950;2023-02-04T09:39:31;99690.06;;;5.05;90.98
27712;BME280;2377;51.734;8.950;2023-02-04T09:41:58;99683.72;;;5.11;91.21
27712;BME280;2377;51.734;8.950;2023-02-04T09:44:27;99684.50;;;5.21;91.65
27712;BME280;2377;51.734;8.950;2023-02-04T09:46:58;99688.03;;;5.49;91.45
27712;BME280;2377;51.734;8.950;2023-02-04T09:49:27;99692.84;;;5.72;91.13
27712;BME280;2377;51.734;8.950;2023-02-04T09:51:55;99701.66;;;6.17;91.43
27712;BME280;2377;51.734;8.950;2023-02-04T09:54:23;99704.09;;;6.55;90.94
27712;BME280;2377;51.734;8.950;2023-02-04T09:56:52;99702.63;;;6.90;88.96
27712;BME280;2377;51.734;8.950;2023-02-04T09:59:22;99707.03;;;7.16;87.53
27712;BME280;2377;51.734;8.950;2023-02-04T10:01:58;99713.44;;;7.20;85.73
27712;BME280;2377;51.734;8.950;2023-02-04T10:04:27;99708.34;;;7.20;84.55
27712;BME280;2377;51.734;8.950;2023-02-04T10:06:56;99718.84;;;7.35;84.20
27712;BME280;2377;51.734;8.950;2023-02-04T10:09:24;99719.44;;;7.47;83.54
27712;BME280;2377;51.734;8.950;2023-02-04T10:11:51;99719.28;;;7.66;84.17
27712;BME280;2377;51.734;8.950;2023-02-04T10:14:22;99725.13;;;7.76;83.21
27712;BME280;2377;51.734;8.950;2023-02-04T10:16:53;99726.75;;;7.50;79.43
27712;BME280;2377;51.734;8.950;2023-02-04T10:19:22;99719.97;;;7.23;80.32
27712;BME280;2377;51.734;8.950;2023-02-04T10:21:50;99726.03;;;6.94;80.61
27712;BME280;2377;51.734;8.950;2023-02-04T10:24:21;99725.56;;;6.71;81.14
27712;BME280;2377;51.734;8.950;2023-02-04T10:26:51;99738.72;;;6.56;81.60
27712;BME280;2377;51.734;8.950;2023-02-04T10:29:22;99734.31;;;6.49;81.96
27712;BME280;2377;51.734;8.950;2023-02-04T10:31:51;99731.53;;;6.42;82.91
27712;BME280;2377;51.734;8.950;2023-02-04T10:34:21;99731.00;;;6.39;82.23
27712;BME280;2377;51.734;8.950;2023-02-04T10:36:53;99733.69;;;6.27;82.30
27712;BME280;2377;51.734;8.950;2023-02-04T10:39:24;99734.78;;;6.25;82.67
27712;BME280;2377;51.734;8.950;2023-02-04T10:41:53;99739.06;;;6.24;83.15
27712;BME280;2377;51.734;8.950;2023-02-04T10:44:28;99734.50;;;6.18;80.87
27712;BME280;2377;51.734;8.950;2023-02-04T10:46:59;99738.81;;;6.08;80.76
27712;BME280;2377;51.734;8.950;2023-02-04T10:49:26;99747.63;;;6.04;80.99
27712;BME280;2377;51.734;8.950;2023-02-04T10:51:55;99745.22;;;6.02;80.97
27712;BME280;2377;51.734;8.950;2023-02-04T10:54:26;99736.94;;;6.00;80.98
27712;BME280;2377;51.734;8.950;2023-02-04T10:57:06;99741.22;;;6.00;80.68
27712;BME280;2377;51.734;8.950;2023-02-04T10:59:35;99747.91;;;6.01;80.96
27712;BME280;2377;51.734;8.950;2023-02-04T11:02:32;99751.88;;;5.93;79.75
27712;BME280;2377;51.734;8.950;2023-02-04T11:05:03;99739.72;;;5.87;81.43
27712;BME280;2377;51.734;8.950;2023-02-04T11:07:33;99741.44;;;5.87;81.48
27712;BME280;2377;51.734;8.950;2023-02-04T11:10:01;99750.03;;;5.96;82.30
27712;BME280;2377;51.734;8.950;2023-02-04T11:24:32;99758.03;;;6.77;77.73
27712;BME280;2377;51.734;8.950;2023-02-04T11:27:16;99752.72;;;6.61;77.85
27712;BME280;2377;51.734;8.950;2023-02-04T11:29:44;99759.88;;;6.47;78.40
27712;BME280;2377;51.734;8.950;2023-02-04T11:32:29;99754.81;;;6.38;77.72
27712;BME280;2377;51.734;8.950;2023-02-04T11:35:20;99759.63;;;6.31;78.34
27712;BME280;2377;51.734;8.950;2023-02-04T11:37:47;99757.91;;;6.22;77.92
27712;BME280;2377;51.734;8.950;2023-02-04T11:40:27;99756.97;;;6.13;77.71
27712;BME280;2377;51.734;8.950;2023-02-04T11:43:02;99768.06;;;6.12;78.36
27712;BME280;2377;51.734;8.950;2023-02-04T11:45:36;99766.59;;;6.09;78.70
27712;BME280;2377;51.734;8.950;2023-02-04T11:48:13;99764.19;;;6.08;78.91
27712;BME280;2377;51.734;8.950;2023-02-04T11:50:42;99756.69;;;6.06;78.57
27712;BME280;2377;51.734;8.950;2023-02-04T11:53:11;99754.44;;;6.03;78.62
27712;BME280;2377;51.734;8.950;2023-02-04T11:55:46;99758.06;;;6.01;78.90
27712;BME280;2377;51.734;8.950;2023-02-04T11:58:15;99760.72;;;5.99;79.65
27712;BME280;2377;51.734;8.950;2023-02-04T12:00:44;99761.78;;;5.97;79.39
27712;BME280;2377;51.734;8.950;2023-02-04T12:03:24;99768.16;;;5.91;78.84
27712;BME280;2377;51.734;8.950;2023-02-04T12:05:52;99770.16;;;5.87;78.78
27712;BME280;2377;51.734;8.950;2023-02-04T12:08:33;99765.47;;;5.83;79.05
27712;BME280;2377;51.734;8.950;2023-02-04T12:11:11;99768.16;;;5.81;79.48
27712;BME280;2377;51.734;8.950;2023-02-04T12:13:49;99760.69;;;5.80;79.83
27712;BME280;2377;51.734;8.950;2023-02-04T12:16:16;99766.72;;;5.79;79.82
27712;BME280;2377;51.734;8.950;2023-02-04T12:18:44;99760.00;;;5.78;79.55
27712;BME280;2377;51.734;8.950;2023-02-04T12:21:11;99759.88;;;5.79;79.87
27712;BME280;2377;51.734;8.950;2023-02-04T12:23:40;99768.16;;;5.81;79.72
27712;BME280;2377;51.734;8.950;2023-02-04T12:26:10;99766.16;;;5.85;80.43
27712;BME280;2377;51.734;8.950;2023-02-04T12:28:37;99769.63;;;5.93;80.54
27712;BME280;2377;51.734;8.950;2023-02-04T12:31:04;99771.69;;;6.00;79.74
27712;BME280;2377;51.734;8.950;2023-02-04T12:33:31;99777.28;;;6.03;80.80
27712;BME280;2377;51.734;8.950;2023-02-04T12:35:58;99775.41;;;6.05;80.30
27712;BME280;2377;51.734;8.950;2023-02-04T12:38:25;99777.28;;;6.03;79.50
27712;BME280;2377;51.734;8.950;2023-02-04T12:40:53;99779.81;;;6.03;79.79
27712;BME280;2377;51.734;8.950;2023-02-04T12:43:21;99785.44;;;6.07;79.99
27712;BME280;2377;51.734;8.950;2023-02-04T12:45:50;99773.28;;;6.10;80.10
27712;BME280;2377;51.734;8.950;2023-02-04T12:48:17;99789.84;;;6.14;80.19
27712;BME280;2377;51.734;8.950;2023-02-04T12:50:44;99787.69;;;6.20;78.50
27712;BME280;2377;51.734;8.950;2023-02-04T12:53:11;99792.78;;;6.20;78.48
27712;BME280;2377;51.734;8.950;2023-02-04T12:55:38;99791.44;;;6.16;78.76
27712;BME280;2377;51.734;8.950;2023-02-04T12:58:05;99796.53;;;6.16;80.32
27712;BME280;2377;51.734;8.950;2023-02-04T13:00:33;99793.84;;;6.17;78.89
27712;BME280;2377;51.734;8.950;2023-02-04T13:03:01;99786.63;;;6.12;78.27
27712;BME280;2377;51.734;8.950;2023-02-04T13:05:28;99780.09;;;6.10;78.59
27712;BME280;2377;51.734;8.950;2023-02-04T13:07:55;99786.75;;;6.11;78.73
27712;BME280;2377;51.734;8.950;2023-02-04T13:10:22;99791.84;;;6.11;79.77
27712;BME280;2377;51.734;8.950;2023-02-04T13:12:50;99794.13;;;6.14;78.57
27712;BME280;2377;51.734;8.950;2023-02-04T13:15:17;99786.63;;;6.12;78.79
27712;BME280;2377;51.734;8.950;2023-02-04T13:17:46;99786.63;;;6.12;78.40
27712;BME280;2377;51.734;8.950;2023-02-04T13:20:13;99786.34;;;6.16;78.25
27712;BME280;2377;51.734;8.950;2023-02-04T13:22:40;99788.66;;;6.19;77.22
27712;BME280;2377;51.734;8.950;2023-02-04T13:25:08;99785.97;;;6.20;76.85
27712;BME280;2377;51.734;8.950;2023-02-04T13:27:36;99783.97;;;6.24;77.17
27712;BME280;2377;51.734;8.950;2023-02-04T13:30:05;99788.38;;;6.31;77.84
27712;BME280;2377;51.734;8.950;2023-02-04T13:32:33;99782.59;;;6.39;77.89
27712;BME280;2377;51.734;8.950;2023-02-04T13:35:01;99786.47;;;6.43;77.72
27712;BME280;2377;51.734;8.950;2023-02-04T13:37:28;99781.13;;;6.46;77.16